Coniston, Canada
Current Conditions -  °F | °C
As of 11:00 AM on Thursday 18 Dec 2014 (Local Time) from CYSB Reporting Station
Light Snow Light Snow  
Wind Chill: -6°   Ceiling: 1100
Heat Index:   Visibility: 15mi
Dew Point:   Wind: 10mph
Humidity: 79%   Direction: 360°N
Pressure: 30.15"   Gusts: NA
Location:  46.49°N, 80.85°W
Report Text: CYSB 181600Z 36009KT 15SM -SN BKN011 M13/M16 A3015 RMK SC7 SLP237
Loading
Personal Weather Stations






























Interactive Weather Map New forecast layout! Learn more

10-Day Weather Forecast

Advertisements
Track Severe Weather on mobile